Time;durP1;ratioP1;P1;durP2;ratioP2;P2;SDS_P1;SDS_P2;PMS_P1;PMS_P2;Temp;Humidity;BMP_temperature;BMP_pressure;BME280_temperature;BME280_humidity;BME280_pressure;Samples;Min_cycle;Max_cycle;Signal;HPM_P1;HPM_P2
2021/09/02 00:01:30;;;;;;;5.55;2.47;;;;;;;13.27;77.11;102581.84;5035721;28;20033;-55
2021/09/02 00:03:55;;;;;;;4.82;2.92;;;;;;;13.28;77.23;102571.91;5035117;28;20442;-56
2021/09/02 00:06:20;;;;;;;5.45;2.58;;;;;;;13.30;77.10;102575.22;5034456;28;20200;-55
2021/09/02 00:08:46;;;;;;;4.22;2.65;;;;;;;13.32;77.40;102578.53;5034462;28;20031;-52
2021/09/02 00:11:12;;;;;;;8.02;3.00;;;;;;;13.37;77.55;102581.38;5038047;28;20079;-54
2021/09/02 00:13:37;;;;;;;6.25;3.45;;;;;;;13.37;77.60;102570.59;5034786;28;20120;-53
2021/09/02 00:16:03;;;;;;;4.53;3.00;;;;;;;13.39;77.89;102573.88;5036366;28;20090;-54
2021/09/02 00:18:29;;;;;;;7.13;3.20;;;;;;;13.42;77.79;102576.13;5037132;28;20487;-54
2021/09/02 00:20:54;;;;;;;5.10;2.80;;;;;;;13.45;77.83;102580.25;5030483;28;20033;-53
2021/09/02 00:23:20;;;;;;;5.93;2.92;;;;;;;13.47;77.98;102570.91;5029883;28;20037;-53
2021/09/02 00:25:45;;;;;;;5.05;2.78;;;;;;;13.43;78.98;102579.66;5028364;28;20666;-55
2021/09/02 00:28:11;;;;;;;5.22;3.08;;;;;;;13.46;78.52;102573.81;5029335;28;20502;-54
2021/09/02 00:30:36;;;;;;;5.53;2.97;;;;;;;13.46;78.70;102579.19;5031900;28;20034;-53
2021/09/02 00:33:02;;;;;;;4.70;3.60;;;;;;;13.36;80.60;102581.59;5028576;28;20068;-53
2021/09/02 00:35:28;;;;;;;7.15;4.07;;;;;;;13.39;79.78;102581.13;5033424;28;20047;-54
2021/09/02 00:37:53;;;;;;;5.97;3.00;;;;;;;13.21;82.19;102579.22;5032613;28;20025;-55
2021/09/02 00:40:19;;;;;;;4.55;3.30;;;;;;;13.33;80.79;102574.78;5030090;28;20038;-54
2021/09/02 00:42:44;;;;;;;6.30;3.85;;;;;;;13.39;80.27;102579.28;5030709;28;20022;-53
2021/09/02 00:45:10;;;;;;;4.55;2.78;;;;;;;13.42;80.09;102583.38;5028346;28;20025;-55
2021/09/02 00:47:37;;;;;;;6.70;3.40;;;;;;;13.39;80.81;102584.66;5030653;28;20118;-54
2021/09/02 00:50:03;;;;;;;9.82;3.78;;;;;;;13.15;84.16;102583.59;5020875;28;20495;-54
2021/09/02 00:52:31;;;;;;;7.25;3.20;;;;;;;13.04;85.20;102584.31;5028263;28;22462;-54
2021/09/02 00:55:00;;;;;;;3.65;2.80;;;;;;;13.23;83.34;102579.84;5024889;28;20030;-54
2021/09/02 00:57:28;;;;;;;5.25;3.00;;;;;;;13.34;82.22;102581.00;5026662;28;20021;-53
2021/09/02 00:59:55;;;;;;;5.55;3.08;;;;;;;13.40;81.64;102580.91;5032830;28;20441;-55
2021/09/02 01:02:21;;;;;;;4.20;3.00;;;;;;;13.46;81.10;102584.56;5028252;28;20075;-55
2021/09/02 01:04:47;;;;;;;6.30;3.08;;;;;;;13.49;80.69;102576.91;5026960;28;20051;-53
2021/09/02 01:07:13;;;;;;;5.85;2.58;;;;;;;13.51;80.62;102582.06;5029703;28;20029;-55
2021/09/02 01:09:39;;;;;;;4.82;3.30;;;;;;;13.52;80.54;102581.00;5024055;28;20036;-53
2021/09/02 01:12:30;;;;;;;5.30;2.65;;;;;;;13.48;80.56;102580.66;5025263;28;20028;-54
2021/09/02 01:14:57;;;;;;;6.60;3.35;;;;;;;13.50;80.35;102577.72;5025303;28;20029;-54
2021/09/02 01:17:24;;;;;;;5.07;3.70;;;;;;;13.42;80.39;102578.81;5028402;28;20029;-53
2021/09/02 01:19:55;;;;;;;5.20;3.03;;;;;;;13.36;80.75;102582.41;5034780;28;20021;-55
2021/09/02 01:22:29;;;;;;;4.95;3.55;;;;;;;13.34;80.77;102583.69;5029775;28;20033;-53
2021/09/02 01:24:59;;;;;;;4.47;2.53;;;;;;;13.34;80.74;102576.44;5024383;28;20482;-54
2021/09/02 01:27:26;;;;;;;5.05;3.00;;;;;;;13.36;80.87;102574.34;5025075;28;20322;-53
2021/09/02 01:29:56;;;;;;;7.20;3.08;;;;;;;13.33;81.03;102580.16;5031512;28;20029;-54
2021/09/02 01:32:27;;;;;;;5.90;3.45;;;;;;;13.28;80.94;102577.28;5032322;28;20033;-53
2021/09/02 01:34:54;;;;;;;6.53;3.15;;;;;;;13.25;80.93;102580.44;5034611;28;20054;-55
2021/09/02 01:37:21;;;;;;;6.22;3.28;;;;;;;13.24;80.95;102579.59;5032342;28;20572;-55
2021/09/02 01:39:48;;;;;;;4.57;3.25;;;;;;;13.20;80.97;102581.09;5031161;28;20021;-53
2021/09/02 01:42:14;;;;;;;6.20;3.65;;;;;;;13.15;81.16;102580.09;5032877;28;20392;-53
2021/09/02 01:44:40;;;;;;;4.20;3.15;;;;;;;13.13;81.39;102580.31;5035809;28;20036;-54
2021/09/02 01:47:26;;;;;;;4.75;3.20;;;;;;;13.04;81.54;102575.41;5031591;28;20032;-53
2021/09/02 01:49:54;;;;;;;6.07;3.00;;;;;;;13.07;81.34;102573.09;5034749;28;20029;-54
2021/09/02 01:52:21;;;;;;;6.43;3.63;;;;;;;13.02;81.56;102575.63;5030281;28;20067;-55
2021/09/02 01:54:47;;;;;;;8.40;3.65;;;;;;;13.00;81.75;102575.88;5032205;28;20429;-55
2021/09/02 01:57:14;;;;;;;5.93;3.47;;;;;;;12.96;81.86;102582.72;5032255;28;20056;-55
2021/09/02 01:59:40;;;;;;;7.53;3.47;;;;;;;12.95;81.96;102577.56;5032541;28;20052;-52
2021/09/02 02:02:05;;;;;;;5.97;3.22;;;;;;;12.95;81.95;102575.72;5035878;28;20437;-55
2021/09/02 02:04:31;;;;;;;5.22;3.38;;;;;;;12.94;82.00;102584.00;5037133;28;20035;-53
2021/09/02 02:06:56;;;;;;;7.10;3.40;;;;;;;12.89;81.97;102578.44;5038980;28;20033;-55
2021/09/02 02:09:22;;;;;;;7.50;3.30;;;;;;;12.86;81.71;102579.69;5038432;28;20630;-54
2021/09/02 02:11:47;;;;;;;3.65;3.30;;;;;;;12.80;82.17;102583.25;5036089;28;20021;-53
2021/09/02 02:14:13;;;;;;;6.85;3.53;;;;;;;12.73;82.27;102571.72;5036027;28;20052;-53
2021/09/02 02:16:38;;;;;;;8.05;4.13;;;;;;;12.70;82.39;102574.84;5036331;28;20198;-54
2021/09/02 02:19:04;;;;;;;5.03;3.35;;;;;;;12.63;82.56;102577.59;5034967;28;20123;-55
2021/09/02 02:21:29;;;;;;;7.55;4.28;;;;;;;12.55;82.87;102575.16;5037220;28;20045;-55
2021/09/02 02:23:55;;;;;;;6.38;4.15;;;;;;;12.38;85.02;102571.31;5036964;28;20029;-55
2021/09/02 02:26:20;;;;;;;8.48;4.70;;;;;;;12.35;84.50;102572.56;5035539;28;20021;-53
2021/09/02 02:28:46;;;;;;;5.95;3.92;;;;;;;12.24;85.67;102570.59;5032394;28;20040;-53
2021/09/02 02:31:11;;;;;;;8.80;4.90;;;;;;;12.20;85.70;102573.91;5037829;28;20074;-55
2021/09/02 02:33:37;;;;;;;7.57;4.47;;;;;;;12.07;87.24;102583.69;5038703;28;20028;-54
2021/09/02 02:36:02;;;;;;;7.75;4.13;;;;;;;12.09;86.27;102575.41;5039750;28;20391;-54
2021/09/02 02:38:28;;;;;;;4.75;3.38;;;;;;;12.10;85.64;102577.88;5035642;28;20106;-53
2021/09/02 02:40:54;;;;;;;5.97;3.63;;;;;;;12.08;85.28;102576.44;5035758;28;20021;-53
2021/09/02 02:43:19;;;;;;;7.05;3.50;;;;;;;12.05;84.82;102584.94;5034345;28;20426;-53
2021/09/02 02:45:45;;;;;;;4.82;3.40;;;;;;;12.02;84.42;102577.28;5036771;28;20107;-52
2021/09/02 02:48:10;;;;;;;6.00;4.05;;;;;;;11.98;84.50;102581.44;5037857;28;20070;-52
2021/09/02 02:50:36;;;;;;;6.35;3.53;;;;;;;11.98;84.05;102586.81;5035897;28;20542;-54
2021/09/02 02:53:01;;;;;;;6.72;3.75;;;;;;;11.94;83.79;102586.41;5035742;28;20144;-54
2021/09/02 02:55:27;;;;;;;6.82;4.35;;;;;;;11.89;83.52;102590.78;5035807;28;20148;-53
2021/09/02 17:11:07;;;;;;;8.77;5.40;;;;;;;19.77;63.62;102536.97;5011021;28;20041;-81
2021/09/02 17:13:33;;;;;;;10.13;5.72;;;;;;;19.76;63.64;102535.34;5025470;28;20315;-82
2021/09/02 17:15:58;;;;;;;12.35;6.45;;;;;;;19.40;64.96;102540.59;5011726;28;20538;-83
2021/09/02 17:18:24;;;;;;;12.20;5.50;;;;;;;19.43;64.62;102534.63;5013146;28;20025;-83
2021/09/02 17:20:49;;;;;;;11.10;6.55;;;;;;;19.37;65.35;102537.56;5068803;22;21519;-52
2021/09/02 17:23:15;;;;;;;8.20;5.43;;;;;;;19.18;65.88;102532.56;5063658;28;20448;-54
2021/09/02 17:25:41;;;;;;;13.88;6.18;;;;;;;19.16;66.33;102540.16;5068340;22;20131;-52
2021/09/02 17:28:07;;;;;;;10.13;6.22;;;;;;;19.09;66.64;102531.44;5047284;28;20142;-51
2021/09/02 17:30:32;;;;;;;11.93;6.43;;;;;;;19.02;67.15;102531.66;5053591;28;20032;-51
2021/09/02 17:32:58;;;;;;;9.75;6.15;;;;;;;18.83;67.91;102525.00;5052464;28;20123;-50
2021/09/02 17:35:24;;;;;;;8.50;5.25;;;;;;;18.99;66.76;102524.03;5052851;28;20517;-50
2021/09/02 17:37:50;;;;;;;10.07;5.93;;;;;;;18.80;67.99;102528.22;5037040;28;20033;-51
2021/09/02 17:40:15;;;;;;;10.07;5.97;;;;;;;18.75;67.88;102522.78;5035014;28;20036;-53
2021/09/02 17:42:41;;;;;;;7.40;5.35;;;;;;;18.75;67.36;102522.78;5036775;28;20025;-51
2021/09/02 17:45:07;;;;;;;9.07;6.22;;;;;;;18.75;67.64;102530.91;5037744;28;20053;-50
2021/09/02 17:47:33;;;;;;;8.50;5.70;;;;;;;18.48;68.93;102528.19;5037821;28;20498;-53
2021/09/02 17:50:00;;;;;;;10.85;5.68;;;;;;;18.56;68.40;102532.34;5037120;28;20110;-50
2021/09/02 17:52:26;;;;;;;11.75;5.57;;;;;;;18.27;69.51;102527.19;5032924;28;20415;-53
2021/09/02 17:54:52;;;;;;;9.00;5.75;;;;;;;18.04;70.89;102530.22;5036137;28;20026;-50
2021/09/02 17:57:18;;;;;;;11.35;5.95;;;;;;;18.00;70.75;102535.34;5032067;28;20505;-50
2021/09/02 17:59:44;;;;;;;10.07;6.20;;;;;;;17.79;72.11;102534.28;5035450;28;20040;-52
2021/09/02 18:02:10;;;;;;;10.23;5.50;;;;;;;17.90;71.01;102535.22;5035223;28;20025;-52
2021/09/02 18:04:36;;;;;;;12.70;6.13;;;;;;;17.94;70.27;102530.91;5032379;28;20036;-52
2021/09/02 18:07:03;;;;;;;11.02;5.50;;;;;;;17.87;70.76;102538.44;5035104;28;20020;-50
2021/09/02 18:09:28;;;;;;;10.60;5.35;;;;;;;17.87;70.60;102541.16;5032268;28;20022;-50
2021/09/02 18:11:54;;;;;;;9.70;5.78;;;;;;;17.48;72.93;102540.34;5036164;28;20032;-50
2021/09/02 18:14:20;;;;;;;10.85;5.78;;;;;;;17.58;72.17;102532.34;5039289;28;20489;-52
2021/09/02 18:16:45;;;;;;;9.88;6.30;;;;;;;17.43;72.91;102540.31;5040094;28;20037;-50
2021/09/02 18:19:11;;;;;;;11.48;6.75;;;;;;;17.35;73.69;102536.09;5034206;28;20032;-53
2021/09/02 18:21:36;;;;;;;10.75;6.28;;;;;;;17.22;73.81;102534.56;5038649;28;20398;-50
2021/09/02 18:24:02;;;;;;;8.43;5.93;;;;;;;17.49;72.03;102536.56;5042141;28;20035;-50
2021/09/02 18:26:28;;;;;;;11.00;5.45;;;;;;;17.26;73.74;102534.09;5028421;28;20033;-50
2021/09/02 18:28:54;;;;;;;8.75;6.05;;;;;;;17.24;73.88;102536.25;5032361;28;20029;-52
2021/09/02 18:31:20;;;;;;;9.80;5.97;;;;;;;17.07;74.70;102531.66;5032090;28;20025;-54
2021/09/02 18:33:45;;;;;;;10.60;5.50;;;;;;;17.08;74.19;102535.19;5035103;28;20024;-53
2021/09/02 18:36:11;;;;;;;7.57;5.07;;;;;;;17.14;73.85;102540.44;5035237;28;20087;-52
2021/09/02 18:38:38;;;;;;;10.52;5.68;;;;;;;17.02;74.20;102542.41;5033905;28;20099;-51
2021/09/02 18:41:08;;;;;;;9.90;5.82;;;;;;;16.87;75.52;102547.56;5037575;28;20031;-49
2021/09/02 18:43:38;;;;;;;9.57;5.15;;;;;;;16.71;76.42;102543.81;5035360;28;20149;-51
2021/09/02 18:46:05;;;;;;;11.65;6.15;;;;;;;16.80;75.64;102547.75;5032789;28;20025;-52
2021/09/02 18:48:31;;;;;;;9.27;4.88;;;;;;;16.96;74.65;102543.41;5032413;28;20040;-50
2021/09/02 18:51:03;;;;;;;8.95;5.50;;;;;;;16.86;75.12;102532.41;5033675;28;20024;-52
2021/09/02 18:53:28;;;;;;;9.98;5.32;;;;;;;16.84;74.83;102537.25;5033720;28;20032;-52
2021/09/02 18:55:56;;;;;;;11.00;5.47;;;;;;;17.03;73.51;102544.03;5031417;28;20037;-51
2021/09/02 18:58:23;;;;;;;7.88;5.13;;;;;;;16.91;74.39;102543.31;5030975;28;20017;-50
2021/09/02 19:00:59;;;;;;;8.05;4.90;;;;;;;16.98;73.79;102541.25;5031516;28;20021;-54
2021/09/02 19:03:28;;;;;;;11.02;5.50;;;;;;;16.86;74.51;102540.50;5014834;28;20032;-53
2021/09/02 19:05:55;;;;;;;8.45;5.10;;;;;;;16.79;74.29;102537.97;5029021;28;20044;-50
2021/09/02 19:08:25;;;;;;;9.07;5.07;;;;;;;16.78;74.56;102528.22;5028657;28;20087;-52
2021/09/02 19:10:55;;;;;;;12.15;5.95;;;;;;;16.61;75.43;102541.72;5029416;28;20116;-53
2021/09/02 19:13:21;;;;;;;9.00;5.40;;;;;;;16.43;76.80;102541.94;5030371;28;20029;-50
2021/09/02 19:15:47;;;;;;;12.57;5.65;;;;;;;16.50;76.11;102539.06;5029504;28;20098;-51
2021/09/02 19:18:12;;;;;;;10.70;4.93;;;;;;;16.52;76.07;102543.19;5031894;28;20397;-52
2021/09/02 19:20:38;;;;;;;11.45;5.93;;;;;;;16.55;75.57;102540.00;5030952;28;20024;-53
2021/09/02 19:23:04;;;;;;;10.38;5.03;;;;;;;16.38;76.53;102533.75;5030667;28;20526;-53
2021/09/02 19:25:31;;;;;;;11.82;5.20;;;;;;;16.26;77.22;102530.28;5029477;28;20028;-53
2021/09/02 19:28:04;;;;;;;11.60;5.45;;;;;;;16.08;78.36;102519.66;5031102;28;20053;-53
2021/09/02 19:30:37;;;;;;;12.30;5.50;;;;;;;15.86;79.54;102525.72;5025322;28;21092;-56
2021/09/02 19:33:05;;;;;;;8.73;5.53;;;;;;;16.11;77.67;102519.97;5034979;28;20025;-53
2021/09/02 19:35:34;;;;;;;9.10;5.55;;;;;;;16.09;77.68;102524.00;5032096;28;20040;-50
2021/09/02 19:38:00;;;;;;;10.75;5.43;;;;;;;15.90;79.03;102526.88;5031519;28;20032;-53
2021/09/02 19:40:26;;;;;;;8.15;5.05;;;;;;;15.87;79.13;102526.56;5029868;28;20025;-52
2021/09/02 19:42:51;;;;;;;15.35;5.97;;;;;;;15.83;79.44;102523.50;5034073;28;20111;-50
2021/09/02 19:45:23;;;;;;;9.73;5.28;;;;;;;15.93;78.40;102526.41;5031195;28;21023;-51
2021/09/02 19:47:52;;;;;;;12.65;5.55;;;;;;;15.84;79.20;102530.56;5029957;28;20183;-50
2021/09/02 19:50:20;;;;;;;8.07;5.85;;;;;;;15.69;80.10;102535.66;5032944;28;20048;-50
2021/09/02 19:52:47;;;;;;;10.23;5.95;;;;;;;15.72;79.84;102532.47;5033393;28;20030;-54
2021/09/02 19:55:14;;;;;;;9.95;5.85;;;;;;;15.71;79.97;102528.13;5033989;28;20430;-50
2021/09/02 19:57:54;;;;;;;13.80;6.35;;;;;;;15.70;79.87;102526.47;5031614;28;20060;-51
2021/09/02 20:00:21;;;;;;;14.68;5.88;;;;;;;15.92;77.72;102523.94;5031776;28;20035;-49
2021/09/02 20:02:46;;;;;;;13.85;5.97;;;;;;;15.84;78.01;102527.84;5032879;28;20035;-53
2021/09/02 20:05:51;;;;;;;13.52;6.00;;;;;;;15.58;80.10;102529.16;5036716;28;20108;-53
2021/09/02 20:08:25;;;;;;;9.15;6.05;;;;;;;15.48;80.69;102523.56;4933232;28;20511;-53
2021/09/02 20:10:53;;;;;;;11.32;5.78;;;;;;;15.39;80.96;102517.69;5021245;28;20491;-53
2021/09/02 20:13:31;;;;;;;9.50;5.38;;;;;;;15.26;81.88;102527.91;5038978;28;20029;-53
2021/09/02 20:15:59;;;;;;;14.18;5.90;;;;;;;15.35;80.97;102527.34;5035665;28;20383;-53
2021/09/02 20:18:26;;;;;;;12.07;5.75;;;;;;;15.25;82.19;102528.97;5035557;28;20517;-52
2021/09/02 20:20:55;;;;;;;9.80;5.53;;;;;;;15.32;80.98;102527.00;5038676;28;20490;-52
2021/09/02 20:23:21;;;;;;;17.25;6.78;;;;;;;15.08;83.10;102526.16;5033403;28;20017;-53
2021/09/02 20:25:47;;;;;;;12.00;6.50;;;;;;;15.05;83.56;102530.16;5031885;28;20027;-53
2021/09/02 20:28:13;;;;;;;14.40;6.15;;;;;;;15.12;82.52;102530.06;5034090;28;20386;-53
2021/09/02 20:30:40;;;;;;;14.13;6.57;;;;;;;14.90;84.57;102526.28;5034864;28;20037;-53
2021/09/02 20:33:05;;;;;;;12.77;6.85;;;;;;;14.95;83.61;102523.72;5033650;28;20033;-53
2021/09/02 20:35:32;;;;;;;12.88;6.32;;;;;;;15.05;82.25;102521.22;5033096;28;20041;-54
2021/09/02 20:38:09;;;;;;;13.52;6.55;;;;;;;15.06;82.28;102525.56;5038503;28;20108;-54
2021/09/02 20:40:43;;;;;;;13.55;6.80;;;;;;;15.03;82.03;102526.03;5032615;28;20555;-52
2021/09/02 20:43:29;;;;;;;13.13;6.22;;;;;;;14.87;83.20;102527.56;5033783;28;20523;-51
2021/09/02 20:45:59;;;;;;;14.02;5.88;;;;;;;14.84;83.20;102527.22;5036970;28;20041;-51
2021/09/02 20:48:30;;;;;;;13.00;6.40;;;;;;;14.86;82.86;102525.09;5026113;28;20025;-53
2021/09/02 20:50:57;;;;;;;13.32;6.70;;;;;;;14.66;84.22;102518.16;5031156;28;20053;-53
2021/09/02 20:53:31;;;;;;;11.55;5.95;;;;;;;14.78;82.39;102524.41;5027471;28;21221;-52
2021/09/02 20:55:57;;;;;;;11.80;6.13;;;;;;;14.90;81.55;102523.56;5033614;28;20020;-54
2021/09/02 20:58:23;;;;;;;14.95;7.32;;;;;;;14.75;82.70;102524.06;5030305;28;20029;-53
2021/09/02 21:00:50;;;;;;;11.80;6.20;;;;;;;14.70;82.49;102522.03;5030157;28;20021;-53
2021/09/02 21:03:19;;;;;;;16.02;7.00;;;;;;;14.78;81.85;102518.19;5027031;28;20430;-54
2021/09/02 21:05:49;;;;;;;16.95;6.47;;;;;;;14.75;81.98;102519.47;5036213;28;20118;-53
2021/09/02 21:08:16;;;;;;;13.27;6.38;;;;;;;14.61;83.06;102522.59;5028228;28;20021;-52
2021/09/02 21:10:46;;;;;;;20.10;7.55;;;;;;;14.44;84.18;102523.28;5028256;28;20336;-53
2021/09/02 21:13:13;;;;;;;13.93;7.28;;;;;;;14.37;84.65;102521.72;5033015;28;20021;-53
2021/09/02 21:15:39;;;;;;;15.63;7.22;;;;;;;14.45;83.88;102524.09;5030831;28;20079;-53
2021/09/02 21:18:06;;;;;;;15.32;7.18;;;;;;;14.44;83.47;102523.28;5034470;28;20035;-54
2021/09/02 21:20:32;;;;;;;15.45;7.30;;;;;;;14.18;85.48;102518.22;5029310;28;20068;-53
2021/09/02 21:23:05;;;;;;;15.30;7.45;;;;;;;14.15;85.60;102513.28;5035502;28;20052;-53
2021/09/02 21:25:35;;;;;;;16.75;7.45;;;;;;;14.20;84.85;102519.66;5033191;28;20587;-53
2021/09/02 21:28:12;;;;;;;16.98;7.18;;;;;;;14.07;86.02;102514.44;5032362;28;20506;-54
2021/09/02 21:31:07;;;;;;;13.70;7.90;;;;;;;13.97;86.86;102516.03;5035141;28;20033;-53
2021/09/02 21:33:35;;;;;;;17.10;7.93;;;;;;;13.90;87.59;102516.13;5027743;28;20064;-53
2021/09/02 21:36:07;;;;;;;15.27;7.35;;;;;;;13.98;86.19;102521.19;5033967;28;20028;-52
2021/09/02 21:38:38;;;;;;;13.50;8.00;;;;;;;13.92;86.97;102516.72;5027308;28;20079;-51
2021/09/02 21:41:15;;;;;;;14.60;7.68;;;;;;;14.05;85.03;102513.84;5030192;28;20112;-53
2021/09/02 21:44:03;;;;;;;18.58;7.75;;;;;;;14.10;84.36;102513.97;5026164;28;20037;-52
2021/09/02 21:46:40;;;;;;;14.50;7.00;;;;;;;14.12;83.83;102514.56;5033014;28;20029;-53
2021/09/02 21:49:07;;;;;;;12.25;7.18;;;;;;;14.13;84.09;102518.09;5031139;28;20109;-53
2021/09/02 21:51:34;;;;;;;9.98;6.65;;;;;;;14.18;83.17;102516.38;5032997;28;20026;-53
2021/09/02 21:54:03;;;;;;;18.27;8.48;;;;;;;14.25;82.06;102512.75;5032762;28;20312;-50
2021/09/02 21:56:29;;;;;;;12.30;6.97;;;;;;;14.21;81.27;102510.53;5029962;28;20038;-50
2021/09/02 21:58:58;;;;;;;14.90;6.95;;;;;;;14.12;80.66;102506.50;5030642;28;20025;-52
2021/09/02 22:01:25;;;;;;;10.35;6.00;;;;;;;14.05;80.41;102513.84;5032372;28;20044;-53
2021/09/02 22:03:53;;;;;;;14.43;6.70;;;;;;;13.92;80.45;102508.63;5029658;28;20495;-51
2021/09/02 22:06:21;;;;;;;12.68;6.50;;;;;;;13.88;80.52;102505.56;5030822;28;20371;-49
2021/09/02 22:08:51;;;;;;;13.13;6.30;;;;;;;13.78;80.96;102502.59;5031484;28;20033;-53
2021/09/02 22:11:24;;;;;;;13.07;6.85;;;;;;;13.71;81.34;102509.94;5030329;28;20025;-54
2021/09/02 22:14:05;;;;;;;14.43;6.97;;;;;;;13.61;81.14;102506.94;5030527;28;20045;-50
2021/09/02 22:16:37;;;;;;;13.68;6.85;;;;;;;13.63;81.28;102502.16;5032509;28;20037;-53
2021/09/02 22:19:15;;;;;;;12.15;7.20;;;;;;;13.53;81.84;102500.00;5031454;28;20066;-52
2021/09/02 22:21:42;;;;;;;18.95;7.93;;;;;;;13.53;81.82;102499.19;5035484;28;20056;-52
2021/09/02 22:24:09;;;;;;;13.40;7.35;;;;;;;13.52;81.91;102487.59;5039818;28;20022;-54
2021/09/02 22:26:35;;;;;;;14.82;7.57;;;;;;;13.39;83.10;102492.28;5036591;28;20033;-51
2021/09/02 22:29:04;;;;;;;11.73;6.88;;;;;;;13.33;82.90;102488.63;5033738;28;20029;-51
2021/09/02 22:31:30;;;;;;;14.38;6.78;;;;;;;13.27;82.50;102497.59;5033809;28;20116;-50
2021/09/02 22:33:56;;;;;;;12.32;6.88;;;;;;;13.27;82.17;102490.31;5036044;28;20033;-51
2021/09/02 22:36:22;;;;;;;12.80;6.43;;;;;;;13.21;82.08;102493.09;5032961;28;20076;-52
2021/09/02 22:38:49;;;;;;;12.55;6.85;;;;;;;13.17;82.05;102494.56;5035020;28;20025;-53
2021/09/02 22:41:15;;;;;;;14.25;6.85;;;;;;;13.12;81.90;102489.88;5034395;28;20049;-51
2021/09/02 22:43:41;;;;;;;11.85;6.88;;;;;;;13.05;81.88;102481.00;5031980;28;20037;-53
2021/09/02 22:46:08;;;;;;;11.65;7.05;;;;;;;13.00;81.83;102473.63;5035707;28;20134;-53
2021/09/02 22:48:35;;;;;;;16.25;6.63;;;;;;;12.96;81.44;102471.59;5035303;28;20037;-50
2021/09/02 22:51:00;;;;;;;11.90;5.75;;;;;;;12.87;81.27;102468.34;5035388;28;20025;-51
2021/09/02 22:53:28;;;;;;;14.35;7.20;;;;;;;12.82;81.28;102473.59;5048570;28;20395;-51
2021/09/02 22:55:55;;;;;;;9.75;5.97;;;;;;;12.78;81.17;102469.69;5036505;28;20417;-51
2021/09/02 22:58:23;;;;;;;13.82;6.38;;;;;;;12.71;81.29;102480.50;5034670;28;20730;-54
2021/09/02 23:00:49;;;;;;;9.70;5.68;;;;;;;12.67;81.26;102465.84;5035521;28;20035;-50
2021/09/02 23:03:15;;;;;;;15.35;6.63;;;;;;;12.62;81.40;102467.56;5034012;28;20371;-50
2021/09/02 23:05:46;;;;;;;12.57;7.00;;;;;;;12.58;81.42;102463.66;5033795;28;21909;-51
2021/09/02 23:08:54;;;;;;;15.68;7.82;;;;;;;12.50;81.86;102467.44;5033429;28;20193;-52
2021/09/02 23:11:32;;;;;;;14.57;7.28;;;;;;;12.50;82.17;102469.31;5018084;28;20076;-51
2021/09/02 23:14:03;;;;;;;19.85;8.63;;;;;;;12.50;82.44;102461.22;5033428;28;20036;-49
2021/09/02 23:16:36;;;;;;;13.65;7.72;;;;;;;12.50;82.82;102469.31;5034240;28;20033;-51
2021/09/02 23:19:02;;;;;;;15.57;7.50;;;;;;;12.46;83.22;102454.66;5037380;28;20040;-50
2021/09/02 23:21:29;;;;;;;14.63;7.57;;;;;;;12.44;83.39;102454.06;5039745;28;20032;-52
2021/09/02 23:23:59;;;;;;;15.68;7.70;;;;;;;12.40;83.11;102451.81;5030863;28;20032;-50
2021/09/02 23:26:27;;;;;;;14.82;7.35;;;;;;;12.38;83.22;102450.34;5041549;22;20454;-49
2021/09/02 23:28:58;;;;;;;13.52;7.50;;;;;;;12.33;83.41;102453.72;5051162;28;20033;-49
2021/09/02 23:31:24;;;;;;;17.38;7.63;;;;;;;12.30;83.66;102443.41;5055210;28;20324;-50
2021/09/02 23:33:50;;;;;;;16.17;7.72;;;;;;;12.24;83.64;102430.03;5050847;28;20553;-51
2021/09/02 23:36:16;;;;;;;15.02;7.68;;;;;;;12.17;84.19;102435.41;5055553;28;20128;-51
2021/09/02 23:38:45;;;;;;;14.15;7.72;;;;;;;12.23;83.99;102437.25;5056443;28;20028;-51
2021/09/02 23:41:14;;;;;;;18.70;7.55;;;;;;;12.18;84.42;102430.88;5059270;28;20032;-49
2021/09/02 23:43:42;;;;;;;11.38;7.25;;;;;;;12.18;84.51;102426.31;5057517;28;20032;-52
2021/09/02 23:46:09;;;;;;;17.20;7.25;;;;;;;12.09;84.82;102423.09;5054987;28;20557;-51
2021/09/02 23:48:36;;;;;;;12.27;7.32;;;;;;;12.07;84.87;102429.72;5056422;28;20192;-50
2021/09/02 23:51:02;;;;;;;14.95;7.75;;;;;;;12.06;85.00;102417.31;5057451;28;20028;-50
2021/09/02 23:53:28;;;;;;;15.00;7.70;;;;;;;12.04;85.12;102424.78;5055775;28;20086;-50
2021/09/02 23:55:53;;;;;;;15.07;7.10;;;;;;;12.01;85.10;102422.50;5056714;28;20044;-49
2021/09/02 23:58:19;;;;;;;15.73;8.32;;;;;;;11.92;85.42;102415.75;5056527;28;20024;-52
